La Tontouta International Airport
NWWW : now visible

Aeroporto :











RITROVATECI SU...

 
LOGIN :

Iscrizione | Disclaimer

   EN    FR    IT 

 









Sommario :    VFR   VFR Marginale   IFR   IFR Intensivo   IFR Molto Intensivo
Visibilità : 
Base nubi : 
>= 8 km
>= 3000ft
5 / 8 km
1000 / 3000 ft
1500m / 5 km
500 / 1000 ft
800 / 1500m
200 / 500 ft
< 800m
< 200 ft
Simboli :   Temporali  Nebbia  Neve Forte  Precipitazioni Forti  Vento > 20 kt






- Altitudine del aeroporto : 52 ft
- Codice IATA : NOU


NWWW - La Tontouta International

ULTIMO METAR :
  • 252100Z AUTO 23004KT CAVOK 21/18 Q1018 TEMPO 4000 SHRA BKN014 SCT020TCU

METARs OBSOLETI :
  • 252030Z AUTO 20003KT CAVOK 21/18 Q1018 TEMPO 4000 SHRA BKN014 SCT020TCU
  • 252000Z AUTO 11004KT 050V140 CAVOK 20/17 Q1017 TEMPO 4000 SHRA BKN014 SCT020TCU
  • 251930Z AUTO VRB03KT CAVOK 20/18 Q1017 TEMPO 4000 SHRA BKN014 SCT020TCU
  • 251900Z AUTO VRB04KT CAVOK 20/18 Q1017 TEMPO 4000 SHRA BKN014 SCT020TCU
  • 251830Z AUTO 03006KT 350V070 CAVOK 20/18 Q1017 TEMPO 4000 SHRA BKN014 SCT020TCU

TAF TAF NWWW
Valido dal 25 a 18 ore il 26 a 18 ore UTC


251700Z 2518/2618 VRB02KT 9999 FEW045 BKN060 OVC080
TEMPO 2518/2524 4000 SHRA BKN014 SCT020TCU
FIR NFFF / Oceania



MetMap, La meteo Aeronautica in un colpo d'occhio ! - Copyright ORBIFLY Dicembre 2007 - Disclaimer

ORBIFLY MET'MAP TEAM :

Programmazione e sviluppo : Alexandra Zaïnal
Concezione : Baudouin d'Aumeries
Aiuto per la programmazione : Marc-Olivier Méhu
Supporto tecnico e logistico : Manuel Goepfert
Aiuto per la traduzione : Arnaldo La Scala

Contatto : metmap@orbifly.com




FONTI E CREDITI :

   NOAA       Earth
Advisory